sensor_id;sensor_type;location;lat;lon;timestamp;P1;durP1;ratioP1;P2;durP2;ratioP2
68655;SDS011;55638;51.122;13.606;2024-02-23T09:00:34;1.10;;;0.40;;
68655;SDS011;55638;51.122;13.606;2024-02-23T09:02:08;2.28;;;0.70;;
68655;SDS011;55638;51.122;13.606;2024-02-23T09:03:42;2.00;;;0.80;;
68655;SDS011;55638;51.122;13.606;2024-02-23T09:05:14;1.65;;;0.63;;
68655;SDS011;55638;51.122;13.606;2024-02-23T09:06:46;1.60;;;0.40;;
68655;SDS011;55638;51.122;13.606;2024-02-23T09:08:20;1.67;;;0.63;;
68655;SDS011;55638;51.122;13.606;2024-02-23T09:09:52;3.22;;;1.13;;
68655;SDS011;55638;51.122;13.606;2024-02-23T09:11:25;1.50;;;0.95;;
68655;SDS011;55638;51.122;13.606;2024-02-23T09:12:58;1.90;;;0.70;;
68655;SDS011;55638;51.122;13.606;2024-02-23T09:14:30;0.98;;;0.60;;
68655;SDS011;55638;51.122;13.606;2024-02-23T09:16:02;1.65;;;0.68;;
68655;SDS011;55638;51.122;13.606;2024-02-23T09:17:34;1.27;;;0.52;;
68655;SDS011;55638;51.122;13.606;2024-02-23T09:19:06;0.90;;;0.50;;
68655;SDS011;55638;51.122;13.606;2024-02-23T09:20:38;0.98;;;0.40;;
68655;SDS011;55638;51.122;13.606;2024-02-23T09:22:11;1.10;;;0.30;;
68655;SDS011;55638;51.122;13.606;2024-02-23T09:23:42;0.90;;;0.57;;
68655;SDS011;55638;51.122;13.606;2024-02-23T09:25:14;0.75;;;0.40;;
68655;SDS011;55638;51.122;13.606;2024-02-23T09:26:46;1.40;;;0.38;;
68655;SDS011;55638;51.122;13.606;2024-02-23T09:28:19;1.50;;;0.50;;
68655;SDS011;55638;51.122;13.606;2024-02-23T09:29:53;1.25;;;0.25;;
68655;SDS011;55638;51.122;13.606;2024-02-23T09:31:25;0.40;;;0.30;;
68655;SDS011;55638;51.122;13.606;2024-02-23T09:32:57;1.10;;;0.52;;
68655;SDS011;55638;51.122;13.606;2024-02-23T09:34:30;0.90;;;0.47;;
68655;SDS011;55638;51.122;13.606;2024-02-23T09:36:02;0.90;;;0.30;;
68655;SDS011;55638;51.122;13.606;2024-02-23T09:37:34;0.95;;;0.50;;
68655;SDS011;55638;51.122;13.606;2024-02-23T09:39:06;0.13;;;0.10;;
68655;SDS011;55638;51.122;13.606;2024-02-23T09:40:38;0.75;;;0.30;;
68655;SDS011;55638;51.122;13.606;2024-02-23T09:42:10;0.98;;;0.30;;
68655;SDS011;55638;51.122;13.606;2024-02-23T09:43:43;0.73;;;0.30;;
68655;SDS011;55638;51.122;13.606;2024-02-23T09:45:16;1.90;;;1.20;;
68655;SDS011;55638;51.122;13.606;2024-02-23T09:46:49;1.40;;;0.80;;
68655;SDS011;55638;51.122;13.606;2024-02-23T09:48:21;0.77;;;0.55;;
68655;SDS011;55638;51.122;13.606;2024-02-23T09:49:54;0.65;;;0.30;;
68655;SDS011;55638;51.122;13.606;2024-02-23T09:51:27;0.90;;;0.30;;
68655;SDS011;55638;51.122;13.606;2024-02-23T09:53:00;2.40;;;0.30;;
68655;SDS011;55638;51.122;13.606;2024-02-23T09:54:33;0.73;;;0.25;;
68655;SDS011;55638;51.122;13.606;2024-02-23T09:56:05;0.80;;;0.30;;
68655;SDS011;55638;51.122;13.606;2024-02-23T09:57:39;0.98;;;0.40;;
68655;SDS011;55638;51.122;13.606;2024-02-23T09:59:13;0.60;;;0.30;;
68655;SDS011;55638;51.122;13.606;2024-02-23T10:00:45;0.57;;;0.30;;
68655;SDS011;55638;51.122;13.606;2024-02-23T10:02:17;1.70;;;0.40;;
68655;SDS011;55638;51.122;13.606;2024-02-23T10:03:49;1.42;;;0.30;;
68655;SDS011;55638;51.122;13.606;2024-02-23T10:05:30;0.40;;;0.20;;
68655;SDS011;55638;51.122;13.606;2024-02-23T10:07:10;1.35;;;0.40;;
68655;SDS011;55638;51.122;13.606;2024-02-23T10:08:42;1.55;;;0.20;;
68655;SDS011;55638;51.122;13.606;2024-02-23T10:10:14;1.50;;;0.40;;
68655;SDS011;55638;51.122;13.606;2024-02-23T10:11:51;1.35;;;0.40;;
68655;SDS011;55638;51.122;13.606;2024-02-23T10:13:24;1.25;;;0.40;;
68655;SDS011;55638;51.122;13.606;2024-02-23T10:14:56;1.50;;;0.10;;
68655;SDS011;55638;51.122;13.606;2024-02-23T10:16:28;0.70;;;0.38;;
68655;SDS011;55638;51.122;13.606;2024-02-23T10:18:00;0.47;;;0.22;;
68655;SDS011;55638;51.122;13.606;2024-02-23T10:19:33;1.33;;;0.20;;
68655;SDS011;55638;51.122;13.606;2024-02-23T10:21:05;0.20;;;0.10;;
68655;SDS011;55638;51.122;13.606;2024-02-23T10:22:37;2.88;;;0.50;;
68655;SDS011;55638;51.122;13.606;2024-02-23T10:24:09;0.82;;;0.30;;
68655;SDS011;55638;51.122;13.606;2024-02-23T10:25:41;1.52;;;0.55;;
68655;SDS011;55638;51.122;13.606;2024-02-23T10:27:13;1.48;;;0.50;;
68655;SDS011;55638;51.122;13.606;2024-02-23T10:28:45;0.93;;;0.40;;
68655;SDS011;55638;51.122;13.606;2024-02-23T10:30:19;1.20;;;0.40;;
68655;SDS011;55638;51.122;13.606;2024-02-23T10:31:51;1.08;;;0.40;;
68655;SDS011;55638;51.122;13.606;2024-02-23T10:33:24;0.57;;;0.32;;
68655;SDS011;55638;51.122;13.606;2024-02-23T10:34:58;1.13;;;0.43;;
68655;SDS011;55638;51.122;13.606;2024-02-23T10:36:32;1.48;;;0.40;;
68655;SDS011;55638;51.122;13.606;2024-02-23T10:38:05;1.00;;;0.40;;
68655;SDS011;55638;51.122;13.606;2024-02-23T10:39:41;0.85;;;0.30;;
68655;SDS011;55638;51.122;13.606;2024-02-23T10:41:13;0.60;;;0.30;;
68655;SDS011;55638;51.122;13.606;2024-02-23T10:42:46;0.45;;;0.20;;
68655;SDS011;55638;51.122;13.606;2024-02-23T10:44:26;0.65;;;0.20;;
68655;SDS011;55638;51.122;13.606;2024-02-23T10:45:59;0.63;;;0.17;;
68655;SDS011;55638;51.122;13.606;2024-02-23T10:47:34;1.27;;;0.43;;
68655;SDS011;55638;51.122;13.606;2024-02-23T10:49:08;0.57;;;0.38;;
68655;SDS011;55638;51.122;13.606;2024-02-23T10:50:41;1.60;;;0.35;;
68655;SDS011;55638;51.122;13.606;2024-02-23T10:52:15;1.10;;;0.30;;
68655;SDS011;55638;51.122;13.606;2024-02-23T10:53:49;1.77;;;0.40;;
68655;SDS011;55638;51.122;13.606;2024-02-23T10:55:22;0.73;;;0.20;;
68655;SDS011;55638;51.122;13.606;2024-02-23T10:56:54;0.88;;;0.40;;
68655;SDS011;55638;51.122;13.606;2024-02-23T10:58:28;2.13;;;0.70;;
68655;SDS011;55638;51.122;13.606;2024-02-23T11:00:00;2.55;;;0.70;;
68655;SDS011;55638;51.122;13.606;2024-02-23T11:01:32;1.05;;;0.30;;
68655;SDS011;55638;51.122;13.606;2024-02-23T11:03:05;0.93;;;0.40;;
68655;SDS011;55638;51.122;13.606;2024-02-23T11:04:38;0.65;;;0.30;;
68655;SDS011;55638;51.122;13.606;2024-02-23T11:06:10;1.17;;;0.35;;
68655;SDS011;55638;51.122;13.606;2024-02-23T11:07:45;0.70;;;0.38;;
68655;SDS011;55638;51.122;13.606;2024-02-23T11:09:21;1.90;;;0.40;;
68655;SDS011;55638;51.122;13.606;2024-02-23T11:10:54;0.73;;;0.40;;
68655;SDS011;55638;51.122;13.606;2024-02-23T11:12:28;1.52;;;0.20;;
68655;SDS011;55638;51.122;13.606;2024-02-23T11:14:07;1.50;;;0.30;;
68655;SDS011;55638;51.122;13.606;2024-02-23T11:15:41;0.25;;;0.13;;
68655;SDS011;55638;51.122;13.606;2024-02-23T11:17:17;0.93;;;0.20;;
68655;SDS011;55638;51.122;13.606;2024-02-23T11:19:03;0.60;;;0.30;;
68655;SDS011;55638;51.122;13.606;2024-02-23T11:20:36;1.20;;;0.50;;
68655;SDS011;55638;51.122;13.606;2024-02-23T11:22:09;1.58;;;0.80;;
68655;SDS011;55638;51.122;13.606;2024-02-23T11:23:53;1.55;;;0.90;;
68655;SDS011;55638;51.122;13.606;2024-02-23T11:25:28;1.50;;;0.60;;
68655;SDS011;55638;51.122;13.606;2024-02-23T11:27:01;1.88;;;0.50;;
68655;SDS011;55638;51.122;13.606;2024-02-23T11:28:49;0.85;;;0.50;;
68655;SDS011;55638;51.122;13.606;2024-02-23T11:30:25;0.68;;;0.50;;
68655;SDS011;55638;51.122;13.606;2024-02-23T11:31:58;0.65;;;0.38;;
68655;SDS011;55638;51.122;13.606;2024-02-23T11:33:35;3.25;;;0.50;;
68655;SDS011;55638;51.122;13.606;2024-02-23T11:35:10;0.55;;;0.20;;
68655;SDS011;55638;51.122;13.606;2024-02-23T11:36:43;0.35;;;0.20;;
68655;SDS011;55638;51.122;13.606;2024-02-23T11:38:22;1.23;;;0.30;;
68655;SDS011;55638;51.122;13.606;2024-02-23T11:39:55;0.43;;;0.25;;
68655;SDS011;55638;51.122;13.606;2024-02-23T11:41:28;0.88;;;0.35;;
68655;SDS011;55638;51.122;13.606;2024-02-23T11:43:01;0.20;;;0.10;;
68655;SDS011;55638;51.122;13.606;2024-02-23T11:44:33;1.73;;;0.20;;
68655;SDS011;55638;51.122;13.606;2024-02-23T11:46:05;1.08;;;0.30;;
68655;SDS011;55638;51.122;13.606;2024-02-23T11:47:37;0.88;;;0.32;;
68655;SDS011;55638;51.122;13.606;2024-02-23T11:49:10;1.85;;;0.20;;
68655;SDS011;55638;51.122;13.606;2024-02-23T11:50:42;0.77;;;0.30;;
68655;SDS011;55638;51.122;13.606;2024-02-23T11:52:14;1.40;;;0.40;;
68655;SDS011;55638;51.122;13.606;2024-02-23T11:53:48;0.75;;;0.40;;
68655;SDS011;55638;51.122;13.606;2024-02-23T11:55:21;0.45;;;0.20;;
68655;SDS011;55638;51.122;13.606;2024-02-23T11:56:55;0.55;;;0.20;;
68655;SDS011;55638;51.122;13.606;2024-02-23T11:58:28;0.45;;;0.15;;
68655;SDS011;55638;51.122;13.606;2024-02-23T12:00:01;0.68;;;0.25;;
68655;SDS011;55638;51.122;13.606;2024-02-23T12:01:35;1.23;;;0.20;;
68655;SDS011;55638;51.122;13.606;2024-02-23T12:03:07;2.17;;;0.35;;
68655;SDS011;55638;51.122;13.606;2024-02-23T12:04:39;0.73;;;0.25;;
68655;SDS011;55638;51.122;13.606;2024-02-23T12:06:11;0.70;;;0.30;;
68655;SDS011;55638;51.122;13.606;2024-02-23T12:07:47;0.40;;;0.28;;
68655;SDS011;55638;51.122;13.606;2024-02-23T12:09:19;0.45;;;0.30;;
68655;SDS011;55638;51.122;13.606;2024-02-23T12:10:52;1.00;;;0.28;;
68655;SDS011;55638;51.122;13.606;2024-02-23T12:12:26;0.30;;;0.20;;
68655;SDS011;55638;51.122;13.606;2024-02-23T12:13:57;0.60;;;0.20;;
68655;SDS011;55638;51.122;13.606;2024-02-23T12:15:31;0.65;;;0.10;;
68655;SDS011;55638;51.122;13.606;2024-02-23T12:17:03;1.17;;;0.20;;
68655;SDS011;55638;51.122;13.606;2024-02-23T12:18:35;0.60;;;0.20;;
68655;SDS011;55638;51.122;13.606;2024-02-23T12:20:07;0.68;;;0.20;;
68655;SDS011;55638;51.122;13.606;2024-02-23T12:21:40;0.20;;;0.10;;
68655;SDS011;55638;51.122;13.606;2024-02-23T12:23:12;0.77;;;0.20;;
68655;SDS011;55638;51.122;13.606;2024-02-23T12:24:44;0.75;;;0.40;;
68655;SDS011;55638;51.122;13.606;2024-02-23T12:26:17;0.80;;;0.20;;
68655;SDS011;55638;51.122;13.606;2024-02-23T12:27:56;1.75;;;0.20;;
68655;SDS011;55638;51.122;13.606;2024-02-23T12:29:31;0.60;;;0.20;;
68655;SDS011;55638;51.122;13.606;2024-02-23T12:31:04;0.40;;;0.30;;
68655;SDS011;55638;51.122;13.606;2024-02-23T12:32:36;3.72;;;0.30;;
68655;SDS011;55638;51.122;13.606;2024-02-23T12:34:11;1.20;;;0.20;;
68655;SDS011;55638;51.122;13.606;2024-02-23T12:35:44;0.68;;;0.20;;
68655;SDS011;55638;51.122;13.606;2024-02-23T12:37:16;1.38;;;0.20;;
68655;SDS011;55638;51.122;13.606;2024-02-23T12:38:49;1.45;;;0.20;;
68655;SDS011;55638;51.122;13.606;2024-02-23T12:40:21;0.63;;;0.10;;
68655;SDS011;55638;51.122;13.606;2024-02-23T12:41:53;1.08;;;0.20;;
68655;SDS011;55638;51.122;13.606;2024-02-23T12:43:25;0.90;;;0.28;;
68655;SDS011;55638;51.122;13.606;2024-02-23T12:44:57;0.73;;;0.20;;
68655;SDS011;55638;51.122;13.606;2024-02-23T12:46:29;0.38;;;0.10;;
68655;SDS011;55638;51.122;13.606;2024-02-23T12:48:01;1.27;;;0.20;;
68655;SDS011;55638;51.122;13.606;2024-02-23T12:49:33;0.43;;;0.20;;
68655;SDS011;55638;51.122;13.606;2024-02-23T12:51:05;0.25;;;0.10;;
68655;SDS011;55638;51.122;13.606;2024-02-23T12:52:37;0.50;;;0.17;;
68655;SDS011;55638;51.122;13.606;2024-02-23T12:54:09;0.35;;;0.10;;
68655;SDS011;55638;51.122;13.606;2024-02-23T12:55:41;0.80;;;0.20;;
68655;SDS011;55638;51.122;13.606;2024-02-23T12:57:13;1.02;;;0.30;;
68655;SDS011;55638;51.122;13.606;2024-02-23T12:58:45;0.43;;;0.17;;
68655;SDS011;55638;51.122;13.606;2024-02-23T13:00:16;1.17;;;0.20;;
68655;SDS011;55638;51.122;13.606;2024-02-23T13:01:48;0.55;;;0.20;;
68655;SDS011;55638;51.122;13.606;2024-02-23T13:03:24;0.47;;;0.20;;
68655;SDS011;55638;51.122;13.606;2024-02-23T13:04:58;1.27;;;0.10;;
68655;SDS011;55638;51.122;13.606;2024-02-23T13:06:30;0.73;;;0.20;;
68655;SDS011;55638;51.122;13.606;2024-02-23T13:08:02;0.30;;;0.13;;
68655;SDS011;55638;51.122;13.606;2024-02-23T13:09:34;1.25;;;0.20;;
68655;SDS011;55638;51.122;13.606;2024-02-23T13:11:06;0.40;;;0.10;;
68655;SDS011;55638;51.122;13.606;2024-02-23T13:12:38;1.52;;;0.20;;
68655;SDS011;55638;51.122;13.606;2024-02-23T13:14:10;0.30;;;0.20;;
68655;SDS011;55638;51.122;13.606;2024-02-23T13:15:45;1.17;;;0.28;;
68655;SDS011;55638;51.122;13.606;2024-02-23T13:17:18;0.70;;;0.20;;
68655;SDS011;55638;51.122;13.606;2024-02-23T13:18:50;0.80;;;0.20;;
68655;SDS011;55638;51.122;13.606;2024-02-23T13:20:22;0.70;;;0.30;;
68655;SDS011;55638;51.122;13.606;2024-02-23T13:21:54;0.32;;;0.17;;
68655;SDS011;55638;51.122;13.606;2024-02-23T13:23:26;0.50;;;0.20;;
68655;SDS011;55638;51.122;13.606;2024-02-23T13:24:58;0.85;;;0.20;;
68655;SDS011;55638;51.122;13.606;2024-02-23T13:26:30;0.22;;;0.10;;
68655;SDS011;55638;51.122;13.606;2024-02-23T13:28:03;1.88;;;0.30;;
68655;SDS011;55638;51.122;13.606;2024-02-23T13:29:36;0.47;;;0.32;;
68655;SDS011;55638;51.122;13.606;2024-02-23T13:31:07;1.08;;;0.20;;
68655;SDS011;55638;51.122;13.606;2024-02-23T13:32:39;1.15;;;0.30;;
68655;SDS011;55638;51.122;13.606;2024-02-23T13:34:11;0.50;;;0.10;;
68655;SDS011;55638;51.122;13.606;2024-02-23T13:35:44;0.47;;;0.20;;
68655;SDS011;55638;51.122;13.606;2024-02-23T13:37:16;0.73;;;0.40;;
68655;SDS011;55638;51.122;13.606;2024-02-23T13:38:48;1.65;;;0.30;;
68655;SDS011;55638;51.122;13.606;2024-02-23T13:40:20;2.67;;;0.28;;
68655;SDS011;55638;51.122;13.606;2024-02-23T13:41:52;3.30;;;0.52;;
68655;SDS011;55638;51.122;13.606;2024-02-23T13:43:24;4.45;;;0.60;;
68655;SDS011;55638;51.122;13.606;2024-02-23T13:44:56;2.20;;;0.43;;
68655;SDS011;55638;51.122;13.606;2024-02-23T13:46:30;1.55;;;0.30;;
68655;SDS011;55638;51.122;13.606;2024-02-23T13:48:02;1.70;;;0.20;;
68655;SDS011;55638;51.122;13.606;2024-02-23T13:49:37;0.40;;;0.25;;
68655;SDS011;55638;51.122;13.606;2024-02-23T13:51:09;1.20;;;0.20;;
68655;SDS011;55638;51.122;13.606;2024-02-23T13:52:41;2.67;;;0.35;;
68655;SDS011;55638;51.122;13.606;2024-02-23T13:54:13;1.73;;;0.30;;
68655;SDS011;55638;51.122;13.606;2024-02-23T13:55:45;1.35;;;0.28;;
68655;SDS011;55638;51.122;13.606;2024-02-23T13:57:17;0.25;;;0.10;;
68655;SDS011;55638;51.122;13.606;2024-02-23T13:58:49;0.80;;;0.20;;
68655;SDS011;55638;51.122;13.606;2024-02-23T14:00:21;0.63;;;0.20;;
68655;SDS011;55638;51.122;13.606;2024-02-23T14:01:53;0.88;;;0.35;;
68655;SDS011;55638;51.122;13.606;2024-02-23T14:03:25;0.35;;;0.25;;
68655;SDS011;55638;51.122;13.606;2024-02-23T14:05:01;0.75;;;0.30;;
68655;SDS011;55638;51.122;13.606;2024-02-23T14:06:38;1.75;;;0.30;;
68655;SDS011;55638;51.122;13.606;2024-02-23T14:08:10;0.47;;;0.22;;
68655;SDS011;55638;51.122;13.606;2024-02-23T14:09:43;1.23;;;0.38;;
68655;SDS011;55638;51.122;13.606;2024-02-23T14:11:15;1.25;;;0.40;;
68655;SDS011;55638;51.122;13.606;2024-02-23T14:12:47;0.77;;;0.28;;
68655;SDS011;55638;51.122;13.606;2024-02-23T14:14:22;0.77;;;0.25;;
68655;SDS011;55638;51.122;13.606;2024-02-23T14:15:55;0.80;;;0.30;;
68655;SDS011;55638;51.122;13.606;2024-02-23T14:17:27;1.10;;;0.30;;
68655;SDS011;55638;51.122;13.606;2024-02-23T14:18:59;1.20;;;0.38;;
68655;SDS011;55638;51.122;13.606;2024-02-23T14:20:31;1.00;;;0.50;;
68655;SDS011;55638;51.122;13.606;2024-02-23T14:22:03;0.30;;;0.10;;
68655;SDS011;55638;51.122;13.606;2024-02-23T14:23:35;1.17;;;0.50;;
68655;SDS011;55638;51.122;13.606;2024-02-23T14:25:08;0.30;;;0.20;;
68655;SDS011;55638;51.122;13.606;2024-02-23T14:26:40;1.55;;;0.30;;
68655;SDS011;55638;51.122;13.606;2024-02-23T14:28:12;1.40;;;0.30;;
68655;SDS011;55638;51.122;13.606;2024-02-23T14:29:45;0.52;;;0.20;;
68655;SDS011;55638;51.122;13.606;2024-02-23T14:31:18;0.52;;;0.25;;
68655;SDS011;55638;51.122;13.606;2024-02-23T14:32:49;0.10;;;0.10;;
68655;SDS011;55638;51.122;13.606;2024-02-23T14:34:22;1.25;;;0.40;;
68655;SDS011;55638;51.122;13.606;2024-02-23T14:35:55;0.52;;;0.30;;
68655;SDS011;55638;51.122;13.606;2024-02-23T14:37:27;0.80;;;0.40;;
68655;SDS011;55638;51.122;13.606;2024-02-23T14:38:59;0.77;;;0.20;;
68655;SDS011;55638;51.122;13.606;2024-02-23T14:40:31;0.30;;;0.30;;
68655;SDS011;55638;51.122;13.606;2024-02-23T14:42:03;0.95;;;0.40;;
68655;SDS011;55638;51.122;13.606;2024-02-23T14:43:36;1.33;;;0.50;;
68655;SDS011;55638;51.122;13.606;2024-02-23T14:45:08;0.60;;;0.25;;
68655;SDS011;55638;51.122;13.606;2024-02-23T14:46:41;1.13;;;0.20;;
68655;SDS011;55638;51.122;13.606;2024-02-23T14:48:14;1.63;;;0.40;;
68655;SDS011;55638;51.122;13.606;2024-02-23T14:49:47;1.90;;;0.50;;
68655;SDS011;55638;51.122;13.606;2024-02-23T14:51:19;1.10;;;0.50;;
68655;SDS011;55638;51.122;13.606;2024-02-23T14:52:50;1.52;;;0.43;;
68655;SDS011;55638;51.122;13.606;2024-02-23T14:54:22;0.90;;;0.50;;
68655;SDS011;55638;51.122;13.606;2024-02-23T14:55:54;1.27;;;0.60;;
68655;SDS011;55638;51.122;13.606;2024-02-23T14:57:26;1.13;;;0.45;;
68655;SDS011;55638;51.122;13.606;2024-02-23T14:58:58;1.73;;;0.30;;
68655;SDS011;55638;51.122;13.606;2024-02-23T15:00:32;0.82;;;0.22;;
68655;SDS011;55638;51.122;13.606;2024-02-23T15:02:04;0.70;;;0.30;;
68655;SDS011;55638;51.122;13.606;2024-02-23T15:03:38;0.75;;;0.30;;
68655;SDS011;55638;51.122;13.606;2024-02-23T15:05:09;0.80;;;0.30;;
68655;SDS011;55638;51.122;13.606;2024-02-23T15:06:42;0.65;;;0.20;;
68655;SDS011;55638;51.122;13.606;2024-02-23T15:08:14;0.98;;;0.30;;
68655;SDS011;55638;51.122;13.606;2024-02-23T15:09:46;0.30;;;0.10;;
68655;SDS011;55638;51.122;13.606;2024-02-23T15:11:18;1.58;;;0.50;;
68655;SDS011;55638;51.122;13.606;2024-02-23T15:12:50;1.15;;;0.35;;
68655;SDS011;55638;51.122;13.606;2024-02-23T15:14:22;0.45;;;0.20;;
68655;SDS011;55638;51.122;13.606;2024-02-23T15:15:54;1.58;;;0.38;;
68655;SDS011;55638;51.122;13.606;2024-02-23T15:17:28;0.50;;;0.20;;
68655;SDS011;55638;51.122;13.606;2024-02-23T15:19:00;0.95;;;0.20;;
68655;SDS011;55638;51.122;13.606;2024-02-23T15:20:33;0.80;;;0.30;;
68655;SDS011;55638;51.122;13.606;2024-02-23T15:22:05;0.57;;;0.30;;
68655;SDS011;55638;51.122;13.606;2024-02-23T15:23:39;0.70;;;0.32;;
68655;SDS011;55638;51.122;13.606;2024-02-23T15:25:15;1.70;;;0.73;;
68655;SDS011;55638;51.122;13.606;2024-02-23T15:26:47;0.70;;;0.30;;
68655;SDS011;55638;51.122;13.606;2024-02-23T15:28:19;0.98;;;0.38;;
68655;SDS011;55638;51.122;13.606;2024-02-23T15:29:54;1.88;;;0.73;;
68655;SDS011;55638;51.122;13.606;2024-02-23T15:31:28;0.60;;;0.50;;
68655;SDS011;55638;51.122;13.606;2024-02-23T15:33:00;0.88;;;0.40;;
68655;SDS011;55638;51.122;13.606;2024-02-23T15:34:32;1.02;;;0.50;;
68655;SDS011;55638;51.122;13.606;2024-02-23T15:36:05;1.17;;;0.47;;
68655;SDS011;55638;51.122;13.606;2024-02-23T15:37:40;1.35;;;0.50;;
68655;SDS011;55638;51.122;13.606;2024-02-23T15:39:12;0.55;;;0.35;;
68655;SDS011;55638;51.122;13.606;2024-02-23T15:40:44;1.75;;;0.55;;
68655;SDS011;55638;51.122;13.606;2024-02-23T15:42:16;0.98;;;0.40;;
68655;SDS011;55638;51.122;13.606;2024-02-23T15:43:49;0.65;;;0.30;;
68655;SDS011;55638;51.122;13.606;2024-02-23T15:45:21;2.22;;;0.40;;
68655;SDS011;55638;51.122;13.606;2024-02-23T15:46:53;0.95;;;0.43;;
68655;SDS011;55638;51.122;13.606;2024-02-23T15:48:25;1.23;;;0.35;;
68655;SDS011;55638;51.122;13.606;2024-02-23T15:49:58;1.52;;;0.40;;
68655;SDS011;55638;51.122;13.606;2024-02-23T15:51:50;2.45;;;0.60;;
68655;SDS011;55638;51.122;13.606;2024-02-23T15:53:31;1.05;;;0.30;;
68655;SDS011;55638;51.122;13.606;2024-02-23T15:55:04;1.85;;;0.50;;
68655;SDS011;55638;51.122;13.606;2024-02-23T15:56:36;0.90;;;0.40;;
68655;SDS011;55638;51.122;13.606;2024-02-23T15:58:10;0.82;;;0.20;;
68655;SDS011;55638;51.122;13.606;2024-02-23T15:59:42;0.85;;;0.30;;
68655;SDS011;55638;51.122;13.606;2024-02-23T16:01:14;0.63;;;0.30;;
68655;SDS011;55638;51.122;13.606;2024-02-23T16:02:46;0.77;;;0.40;;
68655;SDS011;55638;51.122;13.606;2024-02-23T16:04:18;1.55;;;0.40;;
68655;SDS011;55638;51.122;13.606;2024-02-23T16:05:51;2.40;;;0.40;;
68655;SDS011;55638;51.122;13.606;2024-02-23T16:07:24;1.98;;;0.50;;
68655;SDS011;55638;51.122;13.606;2024-02-23T16:08:56;1.05;;;0.35;;
68655;SDS011;55638;51.122;13.606;2024-02-23T16:10:31;1.35;;;0.45;;
68655;SDS011;55638;51.122;13.606;2024-02-23T16:12:03;0.80;;;0.38;;
68655;SDS011;55638;51.122;13.606;2024-02-23T16:13:37;1.30;;;0.30;;
68655;SDS011;55638;51.122;13.606;2024-02-23T16:15:12;1.13;;;0.45;;
68655;SDS011;55638;51.122;13.606;2024-02-23T16:16:44;1.80;;;0.63;;
68655;SDS011;55638;51.122;13.606;2024-02-23T16:18:16;1.10;;;0.63;;
68655;SDS011;55638;51.122;13.606;2024-02-23T16:19:48;0.70;;;0.50;;
68655;SDS011;55638;51.122;13.606;2024-02-23T16:21:21;2.97;;;1.65;;
68655;SDS011;55638;51.122;13.606;2024-02-23T16:22:53;9.07;;;3.97;;
68655;SDS011;55638;51.122;13.606;2024-02-23T16:24:25;7.82;;;3.22;;
68655;SDS011;55638;51.122;13.606;2024-02-23T16:25:57;4.32;;;1.77;;
68655;SDS011;55638;51.122;13.606;2024-02-23T16:27:30;2.67;;;1.38;;
68655;SDS011;55638;51.122;13.606;2024-02-23T16:29:03;2.38;;;1.25;;
68655;SDS011;55638;51.122;13.606;2024-02-23T16:30:37;2.45;;;0.82;;
68655;SDS011;55638;51.122;13.606;2024-02-23T16:32:10;3.30;;;1.00;;
68655;SDS011;55638;51.122;13.606;2024-02-23T16:33:44;2.70;;;1.10;;
68655;SDS011;55638;51.122;13.606;2024-02-23T16:35:16;2.42;;;0.70;;
68655;SDS011;55638;51.122;13.606;2024-02-23T16:36:50;2.17;;;0.95;;
68655;SDS011;55638;51.122;13.606;2024-02-23T16:38:22;2.65;;;1.02;;
68655;SDS011;55638;51.122;13.606;2024-02-23T16:39:55;1.52;;;0.80;;
68655;SDS011;55638;51.122;13.606;2024-02-23T16:41:27;3.20;;;1.00;;
68655;SDS011;55638;51.122;13.606;2024-02-23T16:42:59;1.73;;;0.82;;
68655;SDS011;55638;51.122;13.606;2024-02-23T16:44:31;1.30;;;0.90;;
68655;SDS011;55638;51.122;13.606;2024-02-23T16:46:03;1.38;;;0.80;;
68655;SDS011;55638;51.122;13.606;2024-02-23T16:47:35;2.38;;;0.80;;
68655;SDS011;55638;51.122;13.606;2024-02-23T16:49:07;0.77;;;0.47;;
68655;SDS011;55638;51.122;13.606;2024-02-23T16:50:39;1.13;;;0.60;;
68655;SDS011;55638;51.122;13.606;2024-02-23T16:52:17;1.38;;;0.70;;
68655;SDS011;55638;51.122;13.606;2024-02-23T16:53:49;1.13;;;0.60;;
68655;SDS011;55638;51.122;13.606;2024-02-23T16:55:22;1.30;;;0.60;;
68655;SDS011;55638;51.122;13.606;2024-02-23T16:56:53;1.85;;;0.52;;
68655;SDS011;55638;51.122;13.606;2024-02-23T16:58:29;2.55;;;0.50;;
68655;SDS011;55638;51.122;13.606;2024-02-23T17:00:04;0.80;;;0.57;;
68655;SDS011;55638;51.122;13.606;2024-02-23T17:01:37;1.75;;;0.90;;
68655;SDS011;55638;51.122;13.606;2024-02-23T17:03:09;0.85;;;0.50;;
68655;SDS011;55638;51.122;13.606;2024-02-23T17:04:41;2.08;;;0.57;;
68655;SDS011;55638;51.122;13.606;2024-02-23T17:06:13;1.83;;;0.68;;
68655;SDS011;55638;51.122;13.606;2024-02-23T17:07:45;0.80;;;0.43;;
68655;SDS011;55638;51.122;13.606;2024-02-23T17:09:17;1.83;;;0.90;;
68655;SDS011;55638;51.122;13.606;2024-02-23T17:10:49;1.23;;;0.45;;
68655;SDS011;55638;51.122;13.606;2024-02-23T17:12:21;1.48;;;0.60;;
68655;SDS011;55638;51.122;13.606;2024-02-23T17:13:53;1.35;;;0.50;;
68655;SDS011;55638;51.122;13.606;2024-02-23T17:15:27;1.25;;;0.55;;
68655;SDS011;55638;51.122;13.606;2024-02-23T17:17:00;0.85;;;0.60;;
68655;SDS011;55638;51.122;13.606;2024-02-23T17:18:36;1.30;;;0.65;;
68655;SDS011;55638;51.122;13.606;2024-02-23T17:20:08;1.33;;;0.60;;
68655;SDS011;55638;51.122;13.606;2024-02-23T17:21:40;1.15;;;0.63;;
68655;SDS011;55638;51.122;13.606;2024-02-23T17:23:12;1.52;;;0.70;;
68655;SDS011;55638;51.122;13.606;2024-02-23T17:24:44;1.27;;;0.65;;
68655;SDS011;55638;51.122;13.606;2024-02-23T17:26:16;1.48;;;0.70;;
68655;SDS011;55638;51.122;13.606;2024-02-23T17:27:48;1.73;;;0.70;;
68655;SDS011;55638;51.122;13.606;2024-02-23T17:29:26;1.77;;;0.60;;
68655;SDS011;55638;51.122;13.606;2024-02-23T17:30:58;1.83;;;0.60;;
68655;SDS011;55638;51.122;13.606;2024-02-23T17:32:30;2.65;;;0.80;;
68655;SDS011;55638;51.122;13.606;2024-02-23T17:34:02;1.48;;;0.70;;
68655;SDS011;55638;51.122;13.606;2024-02-23T17:35:34;2.08;;;0.80;;
68655;SDS011;55638;51.122;13.606;2024-02-23T17:37:06;1.95;;;0.60;;
68655;SDS011;55638;51.122;13.606;2024-02-23T17:38:38;4.32;;;0.88;;
68655;SDS011;55638;51.122;13.606;2024-02-23T17:40:10;1.42;;;0.65;;
68655;SDS011;55638;51.122;13.606;2024-02-23T17:41:43;0.88;;;0.60;;
68655;SDS011;55638;51.122;13.606;2024-02-23T17:43:15;1.02;;;0.60;;
68655;SDS011;55638;51.122;13.606;2024-02-23T17:44:47;1.52;;;0.80;;
68655;SDS011;55638;51.122;13.606;2024-02-23T17:46:19;2.85;;;0.70;;
68655;SDS011;55638;51.122;13.606;2024-02-23T17:47:51;1.10;;;0.52;;
68655;SDS011;55638;51.122;13.606;2024-02-23T17:49:26;1.35;;;0.80;;
68655;SDS011;55638;51.122;13.606;2024-02-23T17:50:58;3.03;;;1.00;;
68655;SDS011;55638;51.122;13.606;2024-02-23T17:52:30;1.98;;;0.95;;
68655;SDS011;55638;51.122;13.606;2024-02-23T17:54:03;1.92;;;1.02;;
68655;SDS011;55638;51.122;13.606;2024-02-23T17:55:34;2.15;;;0.93;;
68655;SDS011;55638;51.122;13.606;2024-02-23T17:57:06;2.88;;;0.93;;
68655;SDS011;55638;51.122;13.606;2024-02-23T17:58:38;2.38;;;0.82;;
68655;SDS011;55638;51.122;13.606;2024-02-23T18:00:10;2.05;;;0.90;;
68655;SDS011;55638;51.122;13.606;2024-02-23T18:01:43;1.50;;;0.80;;
68655;SDS011;55638;51.122;13.606;2024-02-23T18:03:15;2.42;;;1.10;;
68655;SDS011;55638;51.122;13.606;2024-02-23T18:04:50;1.38;;;0.93;;
68655;SDS011;55638;51.122;13.606;2024-02-23T18:06:22;1.20;;;0.75;;
68655;SDS011;55638;51.122;13.606;2024-02-23T18:07:55;1.67;;;0.80;;
68655;SDS011;55638;51.122;13.606;2024-02-23T18:09:27;1.80;;;0.80;;
68655;SDS011;55638;51.122;13.606;2024-02-23T18:10:59;1.27;;;0.90;;